Upstream stations:
SHEF ID: PLYK1 COTTONWOOD R NR PLYMOUTH, KS
STATION TYPE:
Regulating: Stage = 28.00, Flow = 11213
PRECIP STAGE STAGE(2) RIV-FLOW BAT-LOAD
in ft ft cfs volt
Ccp-Rev Ccp-Rev Ccp-Rev Ccp-Rev Ccp-Rev
(US/Central)
09/07 00:00 0.00 8.94 3.91 1460 12.13
09/07 01:00 0.00 8.66 3.91 1383 12.13
09/07 02:00 0.00 8.31 3.91 1289 12.07
09/07 03:00 0.00 8.02 3.91 1213 12.07
09/07 04:00 0.00 7.70 3.91 1133 12.01
09/07 05:00 0.00 7.49 3.91 1081 12.01
09/07 06:00 0.00 7.27 3.91 1028 12.07
09/07 07:00 0.00 7.03 3.91 972 12.01
09/07 08:00 0.00 6.84 3.91 928 12.01
09/07 09:00 0.00 6.69 3.91 895 12.07
09/07 10:00 0.00 6.51 3.91 855 12.30
09/07 11:00 0.00 6.38 3.91 827 12.42
09/07 12:00 0.00 6.25 3.91 800 12.48
09/07 13:00 0.00 6.12 3.91 772 12.54
09/07 14:00 0.00 6.01 3.91 749 12.48
09/07 15:00 0.00 5.90 3.91 726 12.36
09/07 16:00 0.00 5.77 3.91 700 12.30
09/07 17:00 0.00 5.68 3.91 682 12.30
09/07 18:00 0.00 5.58 3.91 662 12.24
09/07 19:00 0.00 5.50 3.91 646 12.24
09/07 20:00 0.00 5.44 3.91 635 12.24
09/07 21:00 0.00 5.37 3.91 621 12.19
09/07 22:00 0.00 5.31 3.91 610 12.19
09/07 23:00 0.00 5.25 3.91 599 12.19